createdAt,value
2023-04-29T00:04:01.084Z,88.06
2023-04-29T00:09:04.698Z,87.98
2023-04-29T00:14:07.736Z,88.23
2023-04-29T00:19:10.821Z,88.24
2023-04-29T00:24:14.260Z,88.35
2023-04-29T00:29:18.889Z,88.58
2023-04-29T00:34:21.946Z,88.70
2023-04-29T00:39:24.879Z,88.98
2023-04-29T00:44:27.946Z,88.96
2023-04-29T00:49:31.451Z,89.04
2023-04-29T00:54:39.080Z,88.93
2023-04-29T00:59:42.230Z,88.74
2023-04-29T01:04:45.280Z,88.70
2023-04-29T01:10:03.284Z,88.68
2023-04-29T01:15:24.271Z,88.85
2023-04-29T01:20:28.453Z,89.22
2023-04-29T01:25:31.611Z,89.46
2023-04-29T01:30:57.222Z,89.38
2023-04-29T01:36:39.886Z,89.49
2023-04-29T01:42:21.284Z,89.38
2023-04-29T01:47:25.422Z,89.83
2023-04-29T01:52:28.890Z,90.11
2023-04-29T01:57:31.963Z,90.07
2023-04-29T02:02:35.404Z,90.45
2023-04-29T02:07:38.722Z,90.60
2023-04-29T02:12:42.098Z,90.41
2023-04-29T02:17:45.000Z,90.50
2023-04-29T02:22:48.267Z,90.78
2023-04-29T02:27:51.705Z,90.66
2023-04-29T02:32:55.459Z,90.61
2023-04-29T02:37:58.468Z,90.35
2023-04-29T02:43:01.691Z,89.94
2023-04-29T02:48:08.069Z,90.06
2023-04-29T02:53:11.304Z,89.92
2023-04-29T02:58:14.289Z,89.47
2023-04-29T03:03:17.823Z,89.60
2023-04-29T03:08:21.034Z,89.69
2023-04-29T03:13:24.017Z,89.35
2023-04-29T03:18:27.165Z,88.91
2023-04-29T03:23:30.209Z,88.81
2023-04-29T03:28:33.401Z,88.45
2023-04-29T03:33:36.495Z,88.25
2023-04-29T03:38:39.520Z,87.93
2023-04-29T03:43:44.221Z,88.01
2023-04-29T03:48:47.816Z,87.85
2023-04-29T03:53:53.747Z,88.26
2023-04-29T03:58:56.717Z,88.05
2023-04-29T04:04:00.363Z,87.44
2023-04-29T04:09:03.588Z,87.19
2023-04-29T04:14:06.565Z,87.11
2023-04-29T04:19:10.029Z,87.00
2023-04-29T04:24:13.009Z,86.99
2023-04-29T04:29:15.879Z,87.29
2023-04-29T04:34:18.962Z,87.41
2023-04-29T04:39:22.070Z,87.29
2023-04-29T04:44:24.862Z,87.47
2023-04-29T04:49:27.968Z,87.97
2023-04-29T04:54:31.130Z,88.41
2023-04-29T04:59:34.459Z,88.66
2023-04-29T05:04:37.432Z,88.38
2023-04-29T05:09:40.429Z,88.54
2023-04-29T05:14:43.420Z,88.32
2023-04-29T05:19:46.776Z,87.62
2023-04-29T05:24:49.897Z,87.02
2023-04-29T05:29:53.419Z,85.65
2023-04-29T05:34:56.777Z,84.56
2023-04-29T05:39:59.711Z,84.05
2023-04-29T05:45:02.830Z,83.72
2023-04-29T05:50:07.212Z,83.44
2023-04-29T05:55:10.554Z,83.19
2023-04-29T06:00:13.896Z,82.80
2023-04-29T06:05:17.191Z,81.90
2023-04-29T06:10:20.540Z,81.53
2023-04-29T06:15:23.610Z,80.78
2023-04-29T06:20:26.788Z,80.62
2023-04-29T06:25:29.790Z,80.48
2023-04-29T06:30:32.891Z,79.92
2023-04-29T06:35:41.187Z,79.96
2023-04-29T06:40:44.326Z,79.63
2023-04-29T06:45:47.819Z,79.50
2023-04-29T06:50:56.371Z,78.84
2023-04-29T06:55:59.500Z,78.09
2023-04-29T07:01:04.232Z,75.63
2023-04-29T07:06:07.388Z,75.33
2023-04-29T07:11:10.602Z,75.45
2023-04-29T07:16:20.195Z,74.90
2023-04-29T07:21:23.030Z,74.72
2023-04-29T07:26:26.056Z,73.66
2023-04-29T07:31:29.943Z,73.52
2023-04-29T07:36:33.213Z,71.74
2023-04-29T07:41:36.249Z,70.43
2023-04-29T07:46:39.334Z,70.86
2023-04-29T07:51:44.083Z,71.06
2023-04-29T07:56:47.172Z,72.39
2023-04-29T08:01:50.225Z,70.94
2023-04-29T08:06:53.628Z,71.11
2023-04-29T08:11:56.611Z,71.82
2023-04-29T08:16:59.528Z,72.73
2023-04-29T08:22:04.390Z,72.27
2023-04-29T08:27:07.677Z,72.89
2023-04-29T08:32:10.719Z,71.65
2023-04-29T08:37:13.784Z,68.79
2023-04-29T08:42:25.593Z,68.85
2023-04-29T08:47:31.741Z,67.50
2023-04-29T08:52:36.031Z,65.05
2023-04-29T08:57:41.036Z,63.60
2023-04-29T09:02:50.610Z,64.43
2023-04-29T09:07:54.363Z,63.97
2023-04-29T09:13:00.753Z,63.54
2023-04-29T09:18:03.819Z,63.80
2023-04-29T09:23:06.905Z,60.15
2023-04-29T09:28:17.469Z,61.38
2023-04-29T09:33:20.777Z,61.55
2023-04-29T09:38:23.738Z,61.28
2023-04-29T09:43:26.943Z,60.52
2023-04-29T09:48:34.463Z,59.29
2023-04-29T09:53:38.980Z,60.98
2023-04-29T09:58:42.033Z,57.45
2023-04-29T10:03:46.339Z,59.14
2023-04-29T10:08:50.543Z,59.37
2023-04-29T10:13:53.436Z,59.04
2023-04-29T10:18:59.857Z,58.61
2023-04-29T10:24:04.162Z,58.18
2023-04-29T10:29:08.744Z,57.17
2023-04-29T10:34:14.051Z,57.34
2023-04-29T10:39:42.625Z,56.36
2023-04-29T10:45:28.768Z,55.48
2023-04-29T10:50:50.074Z,53.49
2023-04-29T10:56:19.583Z,50.99
2023-04-29T11:01:53.395Z,49.81
2023-04-29T11:06:59.127Z,48.04
2023-04-29T11:12:08.664Z,47.82
2023-04-29T11:17:16.086Z,44.19
2023-04-29T11:22:33.913Z,45.66
2023-04-29T11:27:42.765Z,43.70
2023-04-29T11:32:45.854Z,42.21
2023-04-29T11:37:49.579Z,43.16
2023-04-29T11:42:52.590Z,42.61
2023-04-29T11:47:56.172Z,40.90
2023-04-29T11:52:59.300Z,41.01
2023-04-29T11:58:05.137Z,41.00
2023-04-29T12:03:20.076Z,42.01
2023-04-29T12:08:28.824Z,42.45
2023-04-29T12:13:33.465Z,42.09
2023-04-29T12:18:36.662Z,41.96
2023-04-29T12:23:41.636Z,42.01
2023-04-29T12:28:44.802Z,42.38
2023-04-29T12:33:47.784Z,43.17
2023-04-29T12:38:50.942Z,41.71
2023-04-29T12:43:54.354Z,42.58
2023-04-29T12:48:57.361Z,42.44
2023-04-29T12:54:04.783Z,40.95
2023-04-29T12:59:12.290Z,41.71
2023-04-29T13:04:15.639Z,42.63
2023-04-29T13:09:19.230Z,41.59
2023-04-29T13:14:23.275Z,42.31
2023-04-29T13:19:43.438Z,41.84
2023-04-29T13:24:50.117Z,41.64
2023-04-29T13:29:53.542Z,41.70
2023-04-29T13:34:56.634Z,39.64
2023-04-29T13:39:59.635Z,39.94
2023-04-29T13:45:03.978Z,41.61
2023-04-29T14:00:47.114Z,38.14
2023-04-29T14:05:43.146Z,37.27
2023-04-29T14:10:46.312Z,37.54
2023-04-29T14:15:49.329Z,38.26
2023-04-29T14:20:52.427Z,38.15
2023-04-29T14:26:06.264Z,38.55
2023-04-29T14:31:18.945Z,40.36
2023-04-29T14:36:21.985Z,40.42
2023-04-29T14:41:25.665Z,41.35
2023-04-29T14:46:29.578Z,41.72
2023-04-29T14:51:32.642Z,43.17
2023-04-29T14:56:37.934Z,43.12
2023-04-29T15:01:40.907Z,43.87
2023-04-29T15:06:43.953Z,43.52
2023-04-29T15:11:46.900Z,43.99
2023-04-29T15:16:49.967Z,43.66
2023-04-29T15:21:53.173Z,43.78
2023-04-29T15:26:56.173Z,44.53
2023-04-29T15:31:59.253Z,45.31
2023-04-29T15:37:02.431Z,45.44
2023-04-29T15:42:05.980Z,45.83
2023-04-29T15:47:09.103Z,46.41
2023-04-29T15:52:12.325Z,45.78
2023-04-29T15:57:15.561Z,46.60
2023-04-29T16:02:20.523Z,46.89
2023-04-29T16:07:24.033Z,47.36
2023-04-29T16:12:27.107Z,47.46
2023-04-29T16:17:32.185Z,47.62
2023-04-29T16:22:35.180Z,47.99
2023-04-29T16:27:38.334Z,48.61
2023-04-29T16:32:43.857Z,48.98
2023-04-29T16:37:46.982Z,49.51
2023-04-29T16:42:50.083Z,50.43
2023-04-29T16:47:54.730Z,50.52
2023-04-29T16:52:57.852Z,50.54
2023-04-29T16:58:00.812Z,51.20
2023-04-29T17:03:04.428Z,51.04
2023-04-29T17:08:07.789Z,50.90
2023-04-29T17:13:11.093Z,51.55
2023-04-29T17:18:14.227Z,52.18
2023-04-29T17:23:17.005Z,52.63
2023-04-29T17:28:20.412Z,53.00
2023-04-29T17:33:23.355Z,54.13
2023-04-29T17:38:26.304Z,54.92
2023-04-29T17:43:32.472Z,55.59
2023-04-29T17:48:35.630Z,57.27
2023-04-29T17:53:38.661Z,58.25
2023-04-29T17:58:41.689Z,59.51
2023-04-29T18:03:47.113Z,59.76
2023-04-29T18:08:50.536Z,60.80
2023-04-29T18:13:54.537Z,61.83
2023-04-29T18:18:57.507Z,62.75
2023-04-29T18:24:00.854Z,63.48
2023-04-29T18:29:04.509Z,63.92
2023-04-29T18:34:07.517Z,64.32
2023-04-29T18:39:10.647Z,64.64
2023-04-29T18:44:14.853Z,65.68
2023-04-29T18:49:18.195Z,66.26
2023-04-29T18:54:21.146Z,66.65
2023-04-29T18:59:24.481Z,67.52
2023-04-29T19:04:27.357Z,67.97
2023-04-29T19:09:32.178Z,68.55
2023-04-29T19:14:35.293Z,69.02
2023-04-29T19:19:38.271Z,69.84
2023-04-29T19:24:42.194Z,69.98
2023-04-29T19:29:45.649Z,69.62
2023-04-29T19:34:49.061Z,70.37
2023-04-29T19:39:52.516Z,71.21
2023-04-29T19:44:56.390Z,71.24
2023-04-29T19:49:59.676Z,71.06
2023-04-29T19:55:02.812Z,71.75
2023-04-29T20:00:06.932Z,72.03
2023-04-29T20:05:13.815Z,71.45
2023-04-29T20:10:16.817Z,70.97
2023-04-29T20:15:19.890Z,71.25
2023-04-29T20:20:24.331Z,71.39
2023-04-29T20:25:28.521Z,71.49
2023-04-29T20:30:31.961Z,72.09
2023-04-29T20:35:34.776Z,72.10
2023-04-29T20:40:37.707Z,71.95
2023-04-29T20:45:41.462Z,71.66
2023-04-29T20:50:44.430Z,71.43
2023-04-29T20:55:47.244Z,71.84
2023-04-29T21:00:50.312Z,72.44
2023-04-29T21:05:54.918Z,72.37
2023-04-29T21:10:58.363Z,72.89
2023-04-29T21:16:01.375Z,72.51
2023-04-29T21:21:04.647Z,72.86
2023-04-29T21:26:07.765Z,73.61
2023-04-29T21:31:16.243Z,73.21
2023-04-29T21:36:19.609Z,73.97
2023-04-29T21:41:29.513Z,74.30
2023-04-29T21:46:33.541Z,73.93
2023-04-29T21:51:36.404Z,73.96
2023-04-29T21:56:39.384Z,74.57
2023-04-29T22:01:45.269Z,74.88
2023-04-29T22:06:49.038Z,74.84
2023-04-29T22:11:51.961Z,74.48
2023-04-29T22:16:55.005Z,74.81
2023-04-29T22:21:58.529Z,74.85
2023-04-29T22:27:01.834Z,74.64
2023-04-29T22:32:05.994Z,74.76
2023-04-29T22:37:09.017Z,74.93
2023-04-29T22:42:12.046Z,74.55
2023-04-29T22:47:15.217Z,74.80
2023-04-29T22:52:18.095Z,74.95
2023-04-29T22:57:21.128Z,74.44
2023-04-29T23:02:29.331Z,74.24
2023-04-29T23:07:32.775Z,74.15
2023-04-29T23:12:36.211Z,74.32
2023-04-29T23:17:39.961Z,74.21
2023-04-29T23:22:42.921Z,74.59
2023-04-29T23:27:45.824Z,74.29
2023-04-29T23:32:49.003Z,74.15
2023-04-29T23:37:52.104Z,74.28
2023-04-29T23:42:55.146Z,74.15
2023-04-29T23:47:58.099Z,74.11
2023-04-29T23:53:01.336Z,74.44
2023-04-29T23:58:04.324Z,74.92
